Bogachiel, Washington
Current Conditions -  °F | °C
As of 9:07 PM on Saturday 20 Dec 2014 (Local Time) from KUIL Reporting Station
Haze Haze  
Wind Chill: 54°   Ceiling: 1600
Heat Index: 54°   Visibility: 5mi
Dew Point: 53°   Wind: 20mph
Humidity: 97%   Direction: 240°WSW
Pressure: 29.48"   Gusts: 30mph
Location:  47.9519°N, 124.29°W
Report Text: KUIL 210507Z AUTO 24017G26KT 5SM BR SCT010 OVC016 12/12 A2948 RMK AO2 PK WND 25026/0459 RAE0455 P0000 T01220117 $
Loading
Personal Weather Stations






























Interactive Weather Map New forecast layout! Learn more

10-Day Weather Forecast

Advertisements
Track Severe Weather on mobile